createdAt,value
2018-01-22T00:01:04.620Z,2.32
2018-01-22T00:03:37.936Z,2.28
2018-01-22T00:06:06.294Z,2.32
2018-01-22T00:08:38.361Z,2.30
2018-01-22T00:11:06.710Z,2.26
2018-01-22T00:13:35.092Z,2.31
2018-01-22T00:16:04.440Z,2.36
2018-01-22T00:18:32.843Z,2.32
2018-01-22T00:21:03.296Z,2.32
2018-01-22T00:23:31.720Z,2.29
2018-01-22T00:26:01.978Z,2.18
2018-01-22T00:28:30.329Z,2.14
2018-01-22T00:30:58.691Z,2.23
2018-01-22T00:33:27.070Z,2.41
2018-01-22T00:36:03.744Z,2.46
2018-01-22T00:38:32.152Z,2.34
2018-01-22T00:41:03.600Z,2.24
2018-01-22T00:43:35.598Z,2.41
2018-01-22T00:46:04.617Z,2.41
2018-01-22T00:48:32.996Z,2.19
2018-01-22T00:51:01.436Z,2.21
2018-01-22T00:53:29.786Z,2.32
2018-01-22T00:55:58.165Z,2.48
2018-01-22T00:58:32.107Z,2.37
2018-01-22T01:01:03.495Z,2.22
2018-01-22T01:03:35.941Z,2.17
2018-01-22T01:06:04.291Z,2.18
2018-01-22T01:08:32.657Z,2.25
2018-01-22T01:11:04.741Z,2.33
2018-01-22T01:13:33.105Z,2.33
2018-01-22T01:16:01.483Z,2.28
2018-01-22T01:18:33.601Z,2.26
2018-01-22T01:21:02.853Z,2.28
2018-01-22T01:23:31.231Z,2.37
2018-01-22T01:26:12.452Z,2.38
2018-01-22T01:28:41.802Z,2.34
2018-01-22T01:31:10.239Z,2.33
2018-01-22T01:33:43.193Z,2.28
2018-01-22T01:36:11.819Z,2.24
2018-01-22T01:38:41.789Z,2.27
2018-01-22T01:41:10.156Z,2.24
2018-01-22T01:43:38.538Z,2.21
2018-01-22T01:46:06.928Z,2.21
2018-01-22T01:48:35.343Z,2.24
2018-01-22T01:51:03.685Z,2.33
2018-01-22T01:53:32.060Z,2.21
2018-01-22T01:56:00.452Z,2.21
2018-01-22T01:58:30.693Z,2.19
2018-01-22T02:00:59.066Z,2.27
2018-01-22T02:03:27.452Z,2.27
2018-01-22T02:05:55.809Z,2.41
2018-01-22T02:08:24.177Z,2.34
2018-01-22T02:10:52.571Z,2.26
2018-01-22T02:13:20.970Z,2.32
2018-01-22T02:15:49.343Z,2.37
2018-01-22T02:18:19.571Z,2.52
2018-01-22T02:20:47.964Z,2.59
2018-01-22T02:23:16.316Z,2.56
2018-01-22T02:25:44.694Z,2.48
2018-01-22T02:28:13.093Z,2.43
2018-01-22T02:30:41.460Z,2.40
2018-01-22T02:33:09.855Z,2.39
2018-01-22T02:35:40.095Z,2.41
2018-01-22T02:38:08.452Z,2.40
2018-01-22T02:40:36.817Z,2.43
2018-01-22T02:43:05.207Z,2.40
2018-01-22T02:45:33.575Z,2.32
2018-01-22T02:48:01.963Z,2.31
2018-01-22T02:50:30.322Z,2.39
2018-01-22T02:52:58.759Z,2.41
2018-01-22T02:55:28.080Z,2.51
2018-01-22T02:57:57.300Z,2.39
2018-01-22T03:00:25.721Z,2.35
2018-01-22T03:02:54.077Z,2.30
2018-01-22T03:05:22.484Z,2.24
2018-01-22T03:07:50.859Z,2.24
2018-01-22T03:10:19.508Z,2.23
2018-01-22T03:12:47.927Z,2.34
2018-01-22T03:15:16.315Z,2.32
2018-01-22T03:17:44.964Z,2.29
2018-01-22T03:20:13.366Z,2.31
2018-01-22T03:22:41.732Z,2.35
2018-01-22T03:25:10.134Z,2.34
2018-01-22T03:27:39.413Z,2.47
2018-01-22T03:30:07.800Z,2.46
2018-01-22T03:32:36.182Z,2.48
2018-01-22T03:35:04.571Z,2.52
2018-01-22T03:37:32.936Z,2.60
2018-01-22T03:40:01.316Z,2.61
2018-01-22T03:42:29.753Z,2.51
2018-01-22T03:44:58.065Z,2.63
2018-01-22T03:47:27.384Z,2.56
2018-01-22T03:49:55.785Z,2.60
2018-01-22T03:52:24.149Z,2.50
2018-01-22T03:54:52.537Z,2.52
2018-01-22T03:57:20.930Z,2.37
2018-01-22T03:59:49.269Z,2.34
2018-01-22T04:02:17.691Z,2.41
2018-01-22T04:04:46.037Z,2.42
2018-01-22T04:07:18.248Z,2.36
2018-01-22T04:09:46.536Z,2.33
2018-01-22T04:12:14.869Z,2.38
2018-01-22T04:14:43.265Z,2.51
2018-01-22T04:17:11.632Z,2.49
2018-01-22T04:19:40.021Z,2.62
2018-01-22T04:22:08.410Z,2.52
2018-01-22T04:24:36.776Z,2.64
2018-01-22T04:27:08.546Z,2.55
2018-01-22T04:29:36.940Z,2.54
2018-01-22T04:32:06.602Z,2.64
2018-01-22T04:34:34.899Z,2.63
2018-01-22T04:37:04.189Z,2.71
2018-01-22T04:39:32.614Z,2.57
2018-01-22T04:42:00.974Z,2.52
2018-01-22T04:44:29.344Z,2.63
2018-01-22T04:46:57.721Z,2.54
2018-01-22T04:49:26.092Z,2.66
2018-01-22T04:51:54.512Z,2.55
2018-01-22T04:54:22.863Z,2.55
2018-01-22T04:56:53.094Z,2.65
2018-01-22T04:59:21.495Z,2.49
2018-01-22T05:01:49.832Z,2.64
2018-01-22T05:04:18.247Z,2.46
2018-01-22T05:06:46.599Z,2.48
2018-01-22T05:09:15.026Z,2.62
2018-01-22T05:11:43.672Z,2.67
2018-01-22T05:14:12.063Z,2.58
2018-01-22T05:16:40.441Z,2.64
2018-01-22T05:19:08.835Z,2.74
2018-01-22T05:21:37.163Z,2.69
2018-01-22T05:24:06.524Z,2.67
2018-01-22T05:26:34.882Z,2.63
2018-01-22T05:29:03.234Z,2.73
2018-01-22T05:31:31.614Z,2.74
2018-01-22T05:34:00.138Z,2.66
2018-01-22T05:36:28.426Z,2.78
2018-01-22T05:38:56.762Z,2.72
2018-01-22T05:41:25.205Z,2.77
2018-01-22T05:43:54.458Z,2.78
2018-01-22T05:46:22.819Z,2.80
2018-01-22T05:48:51.227Z,2.83
2018-01-22T05:51:19.609Z,2.87
2018-01-22T05:53:47.992Z,2.62
2018-01-22T05:56:16.344Z,2.74
2018-01-22T05:58:44.768Z,2.61
2018-01-22T06:01:13.138Z,2.66
2018-01-22T06:03:43.633Z,2.66
2018-01-22T06:06:12.007Z,2.74
2018-01-22T06:08:44.707Z,2.83
2018-01-22T06:11:13.078Z,2.89
2018-01-22T06:13:41.491Z,2.90
2018-01-22T06:16:10.800Z,2.93
2018-01-22T06:18:39.173Z,2.95
2018-01-22T06:21:07.520Z,2.90
2018-01-22T06:23:35.908Z,2.75
2018-01-22T06:26:04.295Z,2.70
2018-01-22T06:28:32.679Z,2.70
2018-01-22T06:31:01.051Z,2.81
2018-01-22T06:33:29.414Z,2.79
2018-01-22T06:36:01.213Z,2.84
2018-01-22T06:38:29.622Z,2.83
2018-01-22T06:40:57.945Z,2.83
2018-01-22T06:43:27.673Z,2.86
2018-01-22T06:45:55.951Z,2.72
2018-01-22T06:48:25.207Z,2.78
2018-01-22T06:50:53.625Z,2.84
2018-01-22T06:53:21.969Z,2.88
2018-01-22T06:55:50.374Z,2.85
2018-01-22T06:58:18.776Z,2.84
2018-01-22T07:00:47.126Z,2.73
2018-01-22T07:03:15.515Z,2.74
2018-01-22T07:05:43.921Z,2.73
2018-01-22T07:08:13.201Z,2.87
2018-01-22T07:10:41.567Z,2.84
2018-01-22T07:13:09.971Z,2.94
2018-01-22T07:15:38.387Z,2.79
2018-01-22T07:18:06.733Z,2.78
2018-01-22T07:20:35.116Z,2.75
2018-01-22T07:23:03.501Z,2.82
2018-01-22T07:25:31.864Z,2.89
2018-01-22T07:28:00.243Z,2.96
2018-01-22T07:30:30.454Z,2.98
2018-01-22T07:32:58.868Z,3.02
2018-01-22T07:35:27.891Z,3.00
2018-01-22T07:37:57.288Z,3.00
2018-01-22T07:40:26.532Z,2.93
2018-01-22T07:42:54.940Z,2.97
2018-01-22T07:45:24.109Z,3.01
2018-01-22T07:47:52.508Z,2.94
2018-01-22T07:50:22.742Z,2.89
2018-01-22T07:52:51.114Z,2.95
2018-01-22T07:55:22.882Z,2.96
2018-01-22T07:57:51.245Z,2.91
2018-01-22T08:00:21.456Z,2.87
2018-01-22T08:02:49.867Z,2.93
2018-01-22T08:05:18.212Z,2.91
2018-01-22T08:07:47.009Z,3.01
2018-01-22T08:10:15.323Z,3.07
2018-01-22T08:12:43.664Z,3.14
2018-01-22T08:15:12.047Z,3.14
2018-01-22T08:17:40.446Z,3.10
2018-01-22T08:20:08.826Z,3.18
2018-01-22T08:22:37.113Z,3.08
2018-01-22T08:25:05.572Z,3.00
2018-01-22T08:27:34.888Z,3.09
2018-01-22T08:30:03.331Z,3.20
2018-01-22T08:32:31.656Z,3.20
2018-01-22T08:35:00.002Z,3.24
2018-01-22T08:37:28.413Z,3.28
2018-01-22T08:39:57.731Z,3.37
2018-01-22T08:42:26.164Z,3.33
2018-01-22T08:44:56.346Z,3.36
2018-01-22T08:47:24.710Z,3.36
2018-01-22T08:49:53.079Z,3.45
2018-01-22T08:52:21.457Z,3.43
2018-01-22T08:54:50.737Z,3.41
2018-01-22T08:57:19.147Z,3.40
2018-01-22T08:59:47.515Z,3.37
2018-01-22T09:02:15.869Z,3.39
2018-01-22T09:04:44.297Z,3.44
2018-01-22T09:07:12.636Z,3.51
2018-01-22T09:09:40.887Z,3.54
2018-01-22T09:12:09.189Z,3.44
2018-01-22T09:14:37.475Z,3.44
2018-01-22T09:17:05.880Z,3.48
2018-01-22T09:19:34.249Z,3.43
2018-01-22T09:22:02.647Z,3.46
2018-01-22T09:24:31.027Z,3.46
2018-01-22T09:26:59.485Z,3.58
2018-01-22T09:29:27.904Z,3.62
2018-01-22T09:31:56.188Z,3.61
2018-01-22T09:34:24.522Z,3.54
2018-01-22T09:36:52.918Z,3.57
2018-01-22T09:39:21.293Z,3.55
2018-01-22T09:41:49.673Z,3.67
2018-01-22T09:44:18.048Z,3.66
2018-01-22T09:46:46.453Z,3.69
2018-01-22T09:49:14.815Z,3.73
2018-01-22T09:51:43.210Z,3.84
2018-01-22T09:54:15.258Z,3.85
2018-01-22T09:56:43.661Z,3.88
2018-01-22T09:59:12.018Z,3.96
2018-01-22T10:01:40.420Z,3.92
2018-01-22T10:04:12.775Z,4.02
2018-01-22T10:06:42.092Z,4.05
2018-01-22T10:09:10.454Z,4.15
2018-01-22T10:11:38.830Z,4.09
2018-01-22T10:14:07.190Z,4.15
2018-01-22T10:16:35.586Z,4.23
2018-01-22T10:19:03.976Z,4.30
2018-01-22T10:21:32.369Z,4.36
2018-01-22T10:24:00.792Z,4.39
2018-01-22T10:26:29.108Z,4.41
2018-01-22T10:28:57.471Z,4.35
2018-01-22T10:31:25.882Z,4.37
2018-01-22T10:33:54.248Z,4.51
2018-01-22T10:36:22.639Z,4.62
2018-01-22T10:38:51.003Z,4.69
2018-01-22T10:41:19.392Z,4.69
2018-01-22T10:43:47.838Z,4.78
2018-01-22T10:46:17.058Z,4.73
2018-01-22T10:48:45.449Z,4.78
2018-01-22T10:51:13.834Z,4.84
2018-01-22T10:53:42.201Z,4.75
2018-01-22T10:56:10.619Z,4.89
2018-01-22T10:58:38.956Z,4.93
2018-01-22T11:34:49.984Z,6.10
2018-01-22T11:37:19.268Z,6.10
2018-01-22T11:39:47.646Z,6.11
2018-01-22T11:42:16.010Z,6.10
2018-01-22T11:44:44.414Z,6.13
2018-01-22T11:47:12.783Z,6.13
2018-01-22T11:49:41.161Z,6.09
2018-01-22T11:52:09.536Z,6.10
2018-01-22T11:54:37.911Z,6.11
2018-01-22T11:57:07.230Z,6.00
2018-01-22T11:59:35.567Z,6.03
2018-01-22T12:02:04.064Z,5.96
2018-01-22T12:04:32.367Z,6.04
2018-01-22T12:07:00.752Z,6.04
2018-01-22T12:09:30.429Z,6.09
2018-01-22T12:11:58.725Z,6.07
2018-01-22T12:14:27.508Z,6.08
2018-01-22T12:16:55.808Z,6.10
2018-01-22T12:19:24.329Z,6.08
2018-01-22T12:21:52.605Z,6.12
2018-01-22T12:24:21.835Z,6.15
2018-01-22T12:26:50.256Z,6.16
2018-01-22T12:29:19.519Z,6.22
2018-01-22T12:31:47.905Z,6.34
2018-01-22T12:34:16.326Z,6.26
2018-01-22T12:36:44.709Z,6.37
2018-01-22T12:39:13.063Z,6.50
2018-01-22T12:41:41.422Z,6.61
2018-01-22T12:44:09.813Z,6.63
2018-01-22T12:46:38.209Z,6.58
2018-01-22T12:49:06.631Z,6.58
2018-01-22T12:51:34.968Z,6.62
2018-01-22T12:54:03.346Z,6.63
2018-01-22T12:56:31.735Z,6.64
2018-01-22T12:59:00.112Z,6.64
2018-01-22T13:01:28.470Z,6.62
2018-01-22T13:03:56.869Z,6.65
2018-01-22T13:06:25.299Z,6.72
2018-01-22T13:08:54.570Z,6.71
2018-01-22T13:11:23.849Z,6.57
2018-01-22T13:13:52.220Z,6.59
2018-01-22T13:16:20.595Z,6.56
2018-01-22T13:18:48.992Z,6.56
2018-01-22T13:21:17.683Z,6.52
2018-01-22T13:23:46.066Z,6.50
2018-01-22T13:26:14.429Z,6.49
2018-01-22T13:28:42.820Z,6.42
2018-01-22T13:31:11.171Z,6.42
2018-01-22T13:33:39.559Z,6.39
2018-01-22T13:36:07.970Z,6.40
2018-01-22T13:38:36.316Z,6.41
2018-01-22T13:41:10.140Z,6.38
2018-01-22T13:43:38.610Z,6.38
2018-01-22T13:46:06.981Z,6.37
2018-01-22T13:48:35.382Z,6.47
2018-01-22T13:51:03.771Z,6.44
2018-01-22T13:53:32.150Z,6.38
2018-01-22T13:56:00.528Z,6.41
2018-01-22T13:58:28.900Z,6.40
2018-01-22T14:00:57.288Z,6.33
2018-01-22T14:03:26.584Z,6.39
2018-01-22T14:05:55.008Z,6.51
2018-01-22T14:08:23.342Z,6.54
2018-01-22T14:10:51.709Z,6.49
2018-01-22T14:13:20.105Z,6.52
2018-01-22T14:15:48.475Z,6.52
2018-01-22T14:18:17.945Z,6.58
2018-01-22T14:20:47.083Z,6.55
2018-01-22T14:23:15.492Z,6.58
2018-01-22T14:25:43.841Z,6.59
2018-01-22T14:28:12.223Z,6.64
2018-01-22T14:30:40.619Z,6.71
2018-01-22T14:33:08.986Z,6.63
2018-01-22T14:35:37.398Z,6.71
2018-01-22T14:38:05.753Z,6.74
2018-01-22T14:40:34.203Z,6.72
2018-01-22T14:43:02.506Z,6.77
2018-01-22T14:45:30.913Z,6.75
2018-01-22T14:47:59.258Z,6.76
2018-01-22T14:50:27.655Z,6.73
2018-01-22T14:52:56.030Z,6.79
2018-01-22T14:55:24.413Z,6.82
2018-01-22T14:57:52.787Z,6.84
2018-01-22T15:00:21.115Z,6.77
2018-01-22T15:02:49.566Z,6.77
2018-01-22T15:05:17.944Z,6.73
2018-01-22T15:07:46.321Z,6.76
2018-01-22T15:10:14.589Z,6.73
2018-01-22T15:12:43.090Z,6.76
2018-01-22T15:15:11.458Z,6.72
2018-01-22T15:17:39.857Z,6.71
2018-01-22T15:20:08.221Z,6.70
2018-01-22T15:22:36.593Z,6.66
2018-01-22T15:25:05.880Z,6.56
2018-01-22T15:27:34.301Z,6.59
2018-01-22T15:30:02.686Z,6.58
2018-01-22T15:32:31.041Z,6.56
2018-01-22T15:34:59.413Z,6.53
2018-01-22T15:37:27.781Z,6.58
2018-01-22T15:39:56.219Z,6.61
2018-01-22T15:42:24.580Z,6.62
2018-01-22T15:44:52.958Z,6.64
2018-01-22T15:47:21.319Z,6.64
2018-01-22T15:49:49.677Z,6.60
2018-01-22T15:52:18.082Z,6.63
2018-01-22T15:54:46.451Z,6.62
2018-01-22T15:57:14.879Z,6.59
2018-01-22T15:59:43.230Z,6.48
2018-01-22T16:02:11.478Z,6.38
2018-01-22T16:04:40.937Z,6.33
2018-01-22T16:07:09.275Z,6.29
2018-01-22T16:09:37.630Z,6.12
2018-01-22T16:12:06.060Z,6.02
2018-01-22T16:14:34.403Z,6.06
2018-01-22T16:17:02.798Z,5.95
2018-01-22T16:19:31.197Z,5.97
2018-01-22T16:21:59.558Z,5.96
2018-01-22T16:24:27.954Z,5.94
2018-01-22T16:26:56.312Z,5.88
2018-01-22T16:29:24.725Z,5.92
2018-01-22T16:31:53.095Z,5.83
2018-01-22T16:34:21.464Z,5.82
2018-01-22T16:36:53.821Z,5.82
2018-01-22T16:39:22.204Z,5.73
2018-01-22T16:41:50.594Z,5.63
2018-01-22T16:44:18.991Z,5.60
2018-01-22T16:46:52.800Z,5.60
2018-01-22T16:49:22.795Z,5.47
2018-01-22T16:51:51.174Z,5.32
2018-01-22T16:54:19.567Z,5.33
2018-01-22T16:56:47.926Z,5.13
2018-01-22T16:59:16.325Z,5.16
2018-01-22T17:01:45.617Z,5.04
2018-01-22T17:04:14.016Z,5.03
2018-01-22T17:06:42.367Z,4.92
2018-01-22T17:09:10.777Z,4.86
2018-01-22T17:11:39.173Z,4.97
2018-01-22T17:14:07.535Z,4.92
2018-01-22T17:16:35.905Z,5.00
2018-01-22T17:19:04.252Z,5.02
2018-01-22T17:21:32.663Z,4.99
2018-01-22T17:24:01.054Z,4.92
2018-01-22T17:26:29.472Z,4.88
2018-01-22T17:28:57.813Z,4.98
2018-01-22T17:31:26.192Z,5.03
2018-01-22T17:33:54.574Z,4.99
2018-01-22T17:36:22.984Z,5.07
2018-01-22T17:38:51.378Z,5.03
2018-01-22T17:41:20.629Z,5.08
2018-01-22T17:43:50.564Z,5.08
2018-01-22T17:46:18.910Z,5.11
2018-01-22T17:48:47.300Z,5.14
2018-01-22T17:51:15.689Z,5.07
2018-01-22T17:53:44.084Z,5.04
2018-01-22T17:56:12.424Z,5.07
2018-01-22T17:58:40.827Z,5.01
2018-01-22T18:01:09.230Z,4.98
2018-01-22T18:03:37.569Z,4.92
2018-01-22T18:06:06.210Z,5.07
2018-01-22T18:08:35.272Z,5.06
2018-01-22T18:11:03.645Z,5.13
2018-01-22T18:13:32.018Z,5.23
2018-01-22T18:16:00.399Z,5.27
2018-01-22T18:18:28.789Z,5.26
2018-01-22T18:20:57.211Z,5.31
2018-01-22T18:23:25.570Z,5.33
2018-01-22T18:25:53.922Z,5.32
2018-01-22T18:28:23.232Z,5.25
2018-01-22T18:30:57.420Z,5.32
2018-01-22T18:33:25.827Z,5.38
2018-01-22T18:35:54.189Z,5.40
2018-01-22T18:38:22.603Z,5.38
2018-01-22T18:40:50.958Z,5.35
2018-01-22T18:43:19.360Z,5.48
2018-01-22T18:45:47.738Z,5.45
2018-01-22T18:48:18.260Z,5.40
2018-01-22T18:50:46.655Z,5.37
2018-01-22T18:53:19.621Z,5.35
2018-01-22T18:55:48.312Z,5.36
2018-01-22T18:58:16.704Z,5.37
2018-01-22T19:00:45.051Z,5.40
2018-01-22T19:03:13.579Z,5.42
2018-01-22T19:05:41.862Z,5.43
2018-01-22T19:08:10.445Z,5.40
2018-01-22T19:10:38.910Z,5.34
2018-01-22T19:13:07.277Z,5.33
2018-01-22T19:15:35.723Z,5.42
2018-01-22T19:18:06.179Z,5.46
2018-01-22T19:20:35.366Z,5.51
2018-01-22T19:23:04.785Z,5.44
2018-01-22T19:25:33.181Z,5.49
2018-01-22T19:28:01.575Z,5.48
2018-01-22T19:30:29.956Z,5.46
2018-01-22T19:32:58.365Z,5.54
2018-01-22T19:35:27.628Z,5.50
2018-01-22T19:37:55.985Z,5.52
2018-01-22T19:40:25.353Z,5.59
2018-01-22T19:42:54.604Z,5.55
2018-01-22T19:45:22.981Z,5.57
2018-01-22T19:47:51.351Z,5.50
2018-01-22T19:50:20.644Z,5.60
2018-01-22T19:52:49.114Z,5.55
2018-01-22T19:55:17.767Z,5.60
2018-01-22T19:57:46.122Z,5.62
2018-01-22T20:00:14.495Z,5.57
2018-01-22T20:02:46.558Z,5.56
2018-01-22T20:05:14.939Z,5.54
2018-01-22T20:07:43.319Z,5.52
2018-01-22T20:10:11.979Z,5.55
2018-01-22T20:12:40.398Z,5.50
2018-01-22T20:15:08.794Z,5.40
2018-01-22T20:17:37.140Z,5.39
2018-01-22T20:20:05.531Z,5.50
2018-01-22T20:22:41.957Z,5.45
2018-01-22T20:25:10.398Z,5.45
2018-01-22T20:27:40.642Z,5.45
2018-01-22T20:30:09.015Z,5.53
2018-01-22T20:32:37.390Z,5.54
2018-01-22T20:35:05.780Z,5.39
2018-01-22T20:37:35.710Z,5.44
2018-01-22T20:40:04.086Z,5.55
2018-01-22T20:42:36.481Z,5.44
2018-01-22T20:45:08.821Z,5.38
2018-01-22T20:47:37.226Z,5.45
2018-01-22T20:50:05.591Z,5.44
2018-01-22T20:52:33.943Z,5.43
2018-01-22T20:55:02.390Z,5.49
2018-01-22T20:57:30.726Z,5.44
2018-01-22T21:00:02.188Z,5.49
2018-01-22T21:02:34.261Z,5.50
2018-01-22T21:05:02.627Z,5.51
2018-01-22T21:07:31.000Z,5.41
2018-01-22T21:09:59.384Z,5.48
2018-01-22T21:12:28.702Z,5.42
2018-01-22T21:14:58.275Z,5.47
2018-01-22T21:17:26.694Z,5.42
2018-01-22T21:19:55.114Z,5.40
2018-01-22T21:22:24.352Z,5.39
2018-01-22T21:24:56.442Z,5.44
2018-01-22T21:27:24.811Z,5.46
2018-01-22T21:29:53.189Z,5.38
2018-01-22T21:32:24.935Z,5.28
2018-01-22T21:34:53.302Z,5.40
2018-01-22T21:37:21.756Z,5.33
2018-01-22T21:39:51.017Z,5.40
2018-01-22T21:42:19.406Z,5.36
2018-01-22T21:44:47.782Z,5.31
2018-01-22T21:47:18.323Z,5.31
2018-01-22T21:49:46.700Z,5.36
2018-01-22T21:52:15.000Z,5.40
2018-01-22T21:54:43.292Z,5.39
2018-01-22T21:57:12.721Z,5.38
2018-01-22T21:59:41.016Z,5.36
2018-01-22T22:02:09.310Z,5.36
2018-01-22T22:04:38.499Z,5.34
2018-01-22T22:07:07.213Z,5.44
2018-01-22T22:09:35.862Z,5.39
2018-01-22T22:12:04.673Z,5.44
2018-01-22T22:14:32.955Z,5.38
2018-01-22T22:17:01.616Z,5.38
2018-01-22T22:19:29.918Z,5.33
2018-01-22T22:21:58.215Z,5.34
2018-01-22T22:24:26.897Z,5.37
2018-01-22T22:26:55.125Z,5.35
2018-01-22T22:29:23.516Z,5.35
2018-01-22T22:31:51.797Z,5.30
2018-01-22T22:34:20.082Z,5.39
2018-01-22T22:36:48.756Z,5.44
2018-01-22T22:39:17.043Z,5.37
2018-01-22T22:41:45.320Z,5.41
2018-01-22T22:44:13.614Z,5.38
2018-01-22T22:46:41.879Z,5.33
2018-01-22T22:49:10.653Z,5.38
2018-01-22T22:51:38.917Z,5.33
2018-01-22T22:54:07.175Z,5.17
2018-01-22T22:56:36.231Z,5.29
2018-01-22T22:59:04.514Z,5.25
2018-01-22T23:01:32.811Z,5.33
2018-01-22T23:04:01.110Z,5.33
2018-01-22T23:06:29.390Z,5.29
2018-01-22T23:08:57.673Z,5.37
2018-01-22T23:11:25.939Z,5.36
2018-01-22T23:13:54.694Z,5.24
2018-01-22T23:16:22.967Z,5.37
2018-01-22T23:18:51.232Z,5.36
2018-01-22T23:21:19.518Z,5.23
2018-01-22T23:23:47.775Z,5.24
2018-01-22T23:26:16.045Z,5.29
2018-01-22T23:28:44.337Z,5.30
2018-01-22T23:31:12.591Z,5.32
2018-01-22T23:33:42.023Z,5.34
2018-01-22T23:36:10.283Z,5.36
2018-01-22T23:38:38.580Z,5.37
2018-01-22T23:41:06.856Z,5.32
2018-01-22T23:43:35.527Z,5.29
2018-01-22T23:46:03.820Z,5.37
2018-01-22T23:48:32.085Z,5.38
2018-01-22T23:51:00.380Z,5.27
2018-01-22T23:53:28.646Z,5.22
2018-01-22T23:55:56.917Z,5.30
2018-01-22T23:58:25.198Z,5.27
